Time;durP1;ratioP1;P1;durP2;ratioP2;P2;SDS_P1;SDS_P2;PMS_P1;PMS_P2;Temp;Humidity;BMP_temperature;BMP_pressure;BME280_temperature;BME280_humidity;BME280_pressure;Samples;Min_cycle;Max_cycle;Signal;HPM_P1;HPM_P2
2022/01/29 00:02:22;;;;;;;26.10;7.28;;;;;;;;;;4993078;28;20029;-68
2022/01/29 00:04:48;;;;;;;38.55;10.07;;;;;;;;;;4992801;28;20026;-67
2022/01/29 00:07:14;;;;;;;32.78;7.07;;;;;;;;;;4993011;28;20068;-68
2022/01/29 00:09:43;;;;;;;30.10;6.50;;;;;;;;;;4992952;28;20084;-68
2022/01/29 00:12:09;;;;;;;34.50;7.78;;;;;;;;;;4982203;28;20102;-69
2022/01/29 00:14:35;;;;;;;21.88;5.32;;;;;;;;;;4992641;28;20093;-69
2022/01/29 00:17:02;;;;;;;28.70;4.90;;;;;;;;;;4992830;28;20041;-68
2022/01/29 00:19:28;;;;;;;26.73;6.65;;;;;;;;;;4992667;28;20101;-67
2022/01/29 00:21:54;;;;;;;23.33;5.03;;;;;;;;;;4992638;28;20034;-68
2022/01/29 00:24:20;;;;;;;33.85;6.80;;;;;;;;;;4992177;28;20498;-68
2022/01/29 00:26:46;;;;;;;19.38;5.22;;;;;;;;;;4992559;28;20073;-68
2022/01/29 00:29:19;;;;;;;28.13;6.43;;;;;;;;;;4991274;28;20030;-69
2022/01/29 00:31:45;;;;;;;27.45;7.28;;;;;;;;;;4991573;28;20077;-65
2022/01/29 00:34:11;;;;;;;21.95;6.20;;;;;;;;;;4992208;28;20401;-69
2022/01/29 00:36:37;;;;;;;34.10;6.65;;;;;;;;;;4993221;28;20023;-69
2022/01/29 00:39:04;;;;;;;31.70;6.50;;;;;;;;;;4993534;28;20026;-68
2022/01/29 00:41:30;;;;;;;23.75;6.50;;;;;;;;;;4992963;28;20026;-68
2022/01/29 00:43:56;;;;;;;22.52;5.72;;;;;;;;;;4960745;28;20022;-68
2022/01/29 00:46:22;;;;;;;23.52;6.10;;;;;;;;;;4992192;28;20440;-68
2022/01/29 00:48:48;;;;;;;22.10;6.20;;;;;;;;;;4990969;28;20026;-70
2022/01/29 00:51:14;;;;;;;18.70;5.00;;;;;;;;;;4992253;28;20022;-69
2022/01/29 00:53:40;;;;;;;17.30;4.20;;;;;;;;;;4991995;28;20026;-69
2022/01/29 00:56:07;;;;;;;19.23;4.57;;;;;;;;;;4992352;28;20029;-69
2022/01/29 00:58:33;;;;;;;25.08;5.80;;;;;;;;;;4992282;28;20031;-68
2022/01/29 01:01:00;;;;;;;19.50;6.00;;;;;;;;;;4992265;28;20034;-68
2022/01/29 01:03:26;;;;;;;17.95;5.55;;;;;;;;;;4991863;28;20042;-69
2022/01/29 01:05:52;;;;;;;18.58;4.90;;;;;;;;;;4992003;28;20030;-69
2022/01/29 01:08:18;;;;;;;19.50;5.03;;;;;;;;;;4992231;28;20080;-68
2022/01/29 01:10:44;;;;;;;31.70;8.18;;;;;;;;;;4987711;28;20436;-68
2022/01/29 01:13:10;;;;;;;23.90;4.78;;;;;;;;;;4986050;28;20030;-68
2022/01/29 01:15:36;;;;;;;13.98;3.22;;;;;;;;;;4992113;28;20041;-69
2022/01/29 01:18:02;;;;;;;16.30;4.30;;;;;;;;;;4992179;28;20097;-69
2022/01/29 01:20:28;;;;;;;18.08;4.65;;;;;;;;;;4992376;28;20477;-67
2022/01/29 01:22:54;;;;;;;20.10;3.67;;;;;;;;;;4992197;28;20026;-68
2022/01/29 01:25:20;;;;;;;22.27;3.97;;;;;;;;;;4993402;28;20027;-69
2022/01/29 01:27:47;;;;;;;15.27;3.70;;;;;;;;;;4995829;28;20369;-69
2022/01/29 01:30:13;;;;;;;17.10;3.67;;;;;;;;;;4994759;28;20029;-69
2022/01/29 01:32:39;;;;;;;21.42;5.10;;;;;;;;;;4994493;28;20108;-67
2022/01/29 01:35:21;;;;;;;23.23;4.50;;;;;;;;;;4995868;28;20033;-69
2022/01/29 01:37:58;;;;;;;15.75;3.33;;;;;;;;;;4995909;28;20074;-69
2022/01/29 01:40:26;;;;;;;22.10;3.78;;;;;;;;;;4991327;28;20105;-69
2022/01/29 01:42:58;;;;;;;16.67;4.10;;;;;;;;;;4985973;28;20030;-69
2022/01/29 01:45:24;;;;;;;19.92;4.32;;;;;;;;;;4995547;28;20026;-69
2022/01/29 01:47:51;;;;;;;17.00;4.47;;;;;;;;;;4994283;28;20026;-68
2022/01/29 01:50:17;;;;;;;17.20;4.38;;;;;;;;;;4994375;28;20045;-68
2022/01/29 01:52:43;;;;;;;12.77;3.83;;;;;;;;;;4994627;28;20397;-68
2022/01/29 01:55:09;;;;;;;12.48;3.10;;;;;;;;;;4995351;28;20030;-67
2022/01/29 01:57:35;;;;;;;18.33;3.70;;;;;;;;;;4994068;28;20026;-67
2022/01/29 02:00:01;;;;;;;21.70;4.85;;;;;;;;;;4994040;28;20026;-67
2022/01/29 02:02:27;;;;;;;17.55;4.15;;;;;;;;;;4995285;28;20018;-67
2022/01/29 02:04:53;;;;;;;16.27;3.97;;;;;;;;;;4994871;28;20033;-67
2022/01/29 02:07:19;;;;;;;25.88;5.03;;;;;;;;;;4995288;28;20113;-68
2022/01/29 02:09:46;;;;;;;16.38;4.20;;;;;;;;;;4995175;28;20030;-67
2022/01/29 02:12:13;;;;;;;18.23;4.70;;;;;;;;;;4984544;28;20065;-67
2022/01/29 02:14:39;;;;;;;16.20;3.90;;;;;;;;;;4995516;28;20110;-69
2022/01/29 02:17:06;;;;;;;21.90;3.80;;;;;;;;;;4995147;28;20037;-68
2022/01/29 02:19:32;;;;;;;18.92;4.90;;;;;;;;;;4995190;28;20033;-68
2022/01/29 02:21:58;;;;;;;21.23;5.00;;;;;;;;;;4995006;28;20022;-69
2022/01/29 02:24:24;;;;;;;18.88;5.40;;;;;;;;;;4995194;28;20029;-69
2022/01/29 02:26:51;;;;;;;14.15;4.45;;;;;;;;;;4994925;28;20057;-69
2022/01/29 02:29:19;;;;;;;14.00;3.78;;;;;;;;;;4994811;28;20173;-70
2022/01/29 02:31:57;;;;;;;20.08;5.80;;;;;;;;;;4994593;28;20076;-69
2022/01/29 02:34:24;;;;;;;28.83;5.70;;;;;;;;;;4994379;28;20023;-70
2022/01/29 02:36:51;;;;;;;20.65;4.88;;;;;;;;;;4993382;28;20023;-68
2022/01/29 02:39:19;;;;;;;22.55;5.63;;;;;;;;;;4994776;28;20145;-68
2022/01/29 02:41:45;;;;;;;13.85;4.28;;;;;;;;;;4994397;28;20037;-68
2022/01/29 02:44:15;;;;;;;15.13;3.25;;;;;;;;;;4994140;28;20381;-69
2022/01/29 02:46:53;;;;;;;18.77;4.45;;;;;;;;;;4993282;28;20114;-68
2022/01/29 02:49:21;;;;;;;16.17;3.45;;;;;;;;;;4994694;28;20018;-69
2022/01/29 02:51:48;;;;;;;22.17;6.35;;;;;;;;;;4994333;28;20026;-69
2022/01/29 02:54:14;;;;;;;17.35;5.53;;;;;;;;;;4994318;28;20029;-68
2022/01/29 02:56:41;;;;;;;19.75;4.30;;;;;;;;;;4994954;28;20022;-70
2022/01/29 02:59:07;;;;;;;18.33;3.75;;;;;;;;;;4994516;28;20048;-68
2022/01/29 03:01:33;;;;;;;22.38;4.78;;;;;;;;;;4994120;28;20034;-67
2022/01/29 03:03:59;;;;;;;16.83;5.28;;;;;;;;;;4994051;28;20089;-69
2022/01/29 03:06:25;;;;;;;18.92;4.95;;;;;;;;;;4975260;28;20051;-69
2022/01/29 03:08:52;;;;;;;20.85;4.63;;;;;;;;;;4980792;28;20061;-69
2022/01/29 03:11:19;;;;;;;22.77;4.97;;;;;;;;;;4978495;28;20026;-68
2022/01/29 03:13:46;;;;;;;18.58;4.97;;;;;;;;;;4992339;28;20034;-69
2022/01/29 03:16:12;;;;;;;16.73;3.80;;;;;;;;;;4993913;28;20029;-69
2022/01/29 03:18:38;;;;;;;13.48;3.42;;;;;;;;;;4993724;28;20022;-69
2022/01/29 03:21:04;;;;;;;14.50;4.25;;;;;;;;;;4994090;28;20033;-69
2022/01/29 03:23:30;;;;;;;17.60;5.05;;;;;;;;;;4993503;28;20057;-70
2022/01/29 03:25:56;;;;;;;13.30;4.30;;;;;;;;;;4993399;28;20153;-68
2022/01/29 03:28:22;;;;;;;11.27;4.03;;;;;;;;;;4993670;28;20457;-69
2022/01/29 03:30:48;;;;;;;11.93;3.30;;;;;;;;;;4993536;28;20023;-70
2022/01/29 03:33:14;;;;;;;19.88;5.93;;;;;;;;;;4993251;28;20392;-69
2022/01/29 03:35:40;;;;;;;17.88;5.03;;;;;;;;;;4993358;28;20109;-71
2022/01/29 03:38:06;;;;;;;15.50;3.53;;;;;;;;;;4993586;28;20033;-70
2022/01/29 03:40:33;;;;;;;13.55;4.72;;;;;;;;;;4993549;28;20022;-68
2022/01/29 03:43:06;;;;;;;15.30;4.72;;;;;;;;;;4993251;28;20105;-68
2022/01/29 03:45:32;;;;;;;12.32;4.13;;;;;;;;;;4993038;28;20026;-69
2022/01/29 03:47:58;;;;;;;20.83;4.68;;;;;;;;;;4992907;28;20019;-68
2022/01/29 03:50:24;;;;;;;16.25;4.63;;;;;;;;;;4993198;28;20031;-70
2022/01/29 03:52:50;;;;;;;22.33;4.82;;;;;;;;;;4993067;28;20023;-67
2022/01/29 03:55:17;;;;;;;15.15;5.28;;;;;;;;;;4991765;28;20038;-68
2022/01/29 03:57:42;;;;;;;18.98;5.30;;;;;;;;;;4993055;28;20507;-66
2022/01/29 04:00:09;;;;;;;14.90;5.35;;;;;;;;;;4993071;28;20030;-68
2022/01/29 04:02:35;;;;;;;13.57;3.38;;;;;;;;;;4993000;28;20038;-68
2022/01/29 04:05:01;;;;;;;15.82;3.92;;;;;;;;;;4992636;28;20027;-68
2022/01/29 04:07:27;;;;;;;14.07;5.03;;;;;;;;;;4992875;28;20401;-68
2022/01/29 04:09:53;;;;;;;13.52;3.40;;;;;;;;;;4992982;28;20107;-68
2022/01/29 04:12:20;;;;;;;13.77;4.63;;;;;;;;;;4982468;28;20384;-69
2022/01/29 04:14:46;;;;;;;17.63;4.40;;;;;;;;;;4993308;28;20049;-69
2022/01/29 04:17:12;;;;;;;14.32;4.07;;;;;;;;;;4993194;28;20113;-69
2022/01/29 04:19:38;;;;;;;18.92;5.72;;;;;;;;;;4991339;28;20029;-69
2022/01/29 04:22:06;;;;;;;12.60;4.25;;;;;;;;;;4992592;28;20491;-69
2022/01/29 04:24:32;;;;;;;15.43;4.70;;;;;;;;;;4992573;28;20022;-68
2022/01/29 04:27:01;;;;;;;13.75;4.22;;;;;;;;;;4992552;28;20042;-68
2022/01/29 04:29:30;;;;;;;14.55;3.80;;;;;;;;;;4992717;28;20118;-69
2022/01/29 04:32:12;;;;;;;23.80;5.65;;;;;;;;;;4960731;28;20019;-67
2022/01/29 04:34:38;;;;;;;16.77;4.32;;;;;;;;;;4992179;28;20018;-69
2022/01/29 04:37:04;;;;;;;17.52;3.75;;;;;;;;;;4993010;28;20370;-68
2022/01/29 04:39:30;;;;;;;17.85;6.25;;;;;;;;;;4992582;28;20389;-70
2022/01/29 04:41:56;;;;;;;15.85;5.35;;;;;;;;;;4976682;28;20015;-68
2022/01/29 04:46:54;;;;;;;16.05;5.15;;;;;;;;;;5019216;23;20053;-69
2022/01/29 04:49:19;;;;;;;13.25;5.07;;;;;;;;;;4996460;28;20026;-68
2022/01/29 04:51:45;;;;;;;13.70;5.25;;;;;;;;;;5008786;28;20551;-69
2022/01/29 04:54:11;;;;;;;10.45;4.15;;;;;;;;;;4997693;28;20025;-70
2022/01/29 04:56:37;;;;;;;14.50;4.97;;;;;;;;;;5012045;28;20030;-70
2022/01/29 04:59:03;;;;;;;13.80;4.55;;;;;;;;;;5011452;28;20109;-70
2022/01/29 05:01:30;;;;;;;13.27;5.13;;;;;;;;;;5011317;28;20525;-70
2022/01/29 05:03:55;;;;;;;12.88;4.15;;;;;;;;;;5011598;28;20018;-70
2022/01/29 05:06:21;;;;;;;15.20;5.45;;;;;;;;;;5001880;28;20041;-70
2022/01/29 05:08:47;;;;;;;13.43;5.30;;;;;;;;;;4993684;28;20029;-69
2022/01/29 05:11:15;;;;;;;11.48;4.97;;;;;;;;;;5003163;28;20022;-69
2022/01/29 05:13:42;;;;;;;13.73;5.05;;;;;;;;;;5009513;28;20025;-69
2022/01/29 05:26:57;;;;;;;18.75;6.13;;;;;;;;;;5011725;28;20068;-69
2022/01/29 05:29:26;;;;;;;9.85;5.60;;;;;;;;;;5012062;28;20152;-69
2022/01/29 05:31:52;;;;;;;12.00;5.32;;;;;;;;;;5011697;28;20495;-68
2022/01/29 05:34:19;;;;;;;12.55;5.90;;;;;;;;;;5011121;28;20029;-68
2022/01/29 05:36:45;;;;;;;14.70;7.05;;;;;;;;;;5011488;28;20113;-70
2022/01/29 05:39:11;;;;;;;15.02;6.35;;;;;;;;;;5011571;28;20104;-70
2022/01/29 05:41:37;;;;;;;11.82;6.50;;;;;;;;;;5011477;28;20030;-70
2022/01/29 05:44:03;;;;;;;12.85;6.90;;;;;;;;;;5011347;28;20026;-70
2022/01/29 05:46:29;;;;;;;16.83;8.20;;;;;;;;;;5011094;28;20066;-70
2022/01/29 05:48:55;;;;;;;16.83;8.27;;;;;;;;;;5011675;28;20021;-70
2022/01/29 05:51:21;;;;;;;15.05;6.75;;;;;;;;;;5011239;28;20499;-71
2022/01/29 05:53:47;;;;;;;16.80;8.60;;;;;;;;;;5011098;28;20032;-69
2022/01/29 05:56:13;;;;;;;14.52;7.55;;;;;;;;;;5011342;28;20097;-69
2022/01/29 05:58:39;;;;;;;14.02;7.65;;;;;;;;;;5011437;28;20030;-69
2022/01/29 06:01:05;;;;;;;12.18;6.68;;;;;;;;;;5011334;28;20156;-69
2022/01/29 06:03:32;;;;;;;14.73;7.32;;;;;;;;;;5011070;28;20026;-68
2022/01/29 06:05:58;;;;;;;14.75;6.80;;;;;;;;;;5010968;28;20029;-70
2022/01/29 06:08:24;;;;;;;14.98;8.65;;;;;;;;;;5011456;28;20014;-70
2022/01/29 06:10:50;;;;;;;13.57;7.30;;;;;;;;;;5006549;28;20393;-71
2022/01/29 06:13:16;;;;;;;14.93;7.63;;;;;;;;;;5010988;28;20083;-70
2022/01/29 06:15:43;;;;;;;13.00;7.32;;;;;;;;;;5015665;28;20508;-68
2022/01/29 06:18:15;;;;;;;14.18;8.43;;;;;;;;;;5015208;28;20108;-69
2022/01/29 06:20:41;;;;;;;17.63;8.98;;;;;;;;;;5016008;28;20101;-70
2022/01/29 06:23:09;;;;;;;12.55;7.00;;;;;;;;;;5016263;28;20069;-69
2022/01/29 06:25:35;;;;;;;13.10;7.78;;;;;;;;;;5016306;28;20438;-70
2022/01/29 06:28:01;;;;;;;19.23;8.52;;;;;;;;;;5014532;28;20014;-71
2022/01/29 06:30:27;;;;;;;15.15;8.80;;;;;;;;;;5014694;28;20383;-71
2022/01/29 06:32:53;;;;;;;12.90;8.25;;;;;;;;;;5014929;28;20101;-70
2022/01/29 06:35:19;;;;;;;14.55;8.50;;;;;;;;;;5014670;28;20053;-69
2022/01/29 06:37:45;;;;;;;13.18;7.25;;;;;;;;;;5015375;28;20060;-70
2022/01/29 06:40:11;;;;;;;14.65;8.15;;;;;;;;;;5015240;28;20054;-70
2022/01/29 06:42:37;;;;;;;12.75;8.00;;;;;;;;;;5014636;28;20057;-70
2022/01/29 06:45:04;;;;;;;15.13;8.27;;;;;;;;;;5014311;28;20049;-70
2022/01/29 06:47:30;;;;;;;12.73;7.85;;;;;;;;;;5015302;28;20080;-71
2022/01/29 06:49:55;;;;;;;15.23;8.93;;;;;;;;;;5014585;28;20018;-70
2022/01/29 06:52:22;;;;;;;12.32;8.25;;;;;;;;;;5014090;28;20487;-70
2022/01/29 06:54:48;;;;;;;14.90;8.13;;;;;;;;;;5013670;28;20442;-71
2022/01/29 06:57:14;;;;;;;19.05;7.90;;;;;;;;;;5013823;28;20037;-69
2022/01/29 06:59:40;;;;;;;15.35;8.63;;;;;;;;;;5013879;28;20624;-69
2022/01/29 07:02:06;;;;;;;16.17;9.65;;;;;;;;;;5013771;28;20115;-69
2022/01/29 07:04:32;;;;;;;15.25;8.88;;;;;;;;;;5013273;28;20142;-69
2022/01/29 07:06:58;;;;;;;13.23;8.02;;;;;;;;;;4997054;28;20031;-68
2022/01/29 07:09:24;;;;;;;15.77;8.15;;;;;;;;;;5005332;28;20049;-69
2022/01/29 07:11:55;;;;;;;16.75;8.15;;;;;;;;;;5002710;28;20488;-69
2022/01/29 07:14:21;;;;;;;13.35;7.95;;;;;;;;;;5013275;28;20491;-70
2022/01/29 07:16:47;;;;;;;16.83;8.85;;;;;;;;;;5011473;28;20030;-69
2022/01/29 07:19:13;;;;;;;14.50;7.63;;;;;;;;;;5012146;28;20018;-70
2022/01/29 07:21:39;;;;;;;10.65;6.75;;;;;;;;;;5013267;28;20038;-70
2022/01/29 07:24:06;;;;;;;11.15;7.03;;;;;;;;;;5012343;28;20022;-70
2022/01/29 07:26:32;;;;;;;14.10;8.15;;;;;;;;;;5013129;28;20395;-71
2022/01/29 07:28:58;;;;;;;12.27;7.25;;;;;;;;;;5013765;28;20048;-70
2022/01/29 07:31:24;;;;;;;13.25;8.05;;;;;;;;;;5013041;28;20046;-68
2022/01/29 07:33:50;;;;;;;12.52;7.60;;;;;;;;;;5013042;28;20038;-69
2022/01/29 07:36:16;;;;;;;15.40;8.80;;;;;;;;;;5013156;28;20018;-70
2022/01/29 07:38:42;;;;;;;13.60;8.07;;;;;;;;;;5013192;28;20033;-69
2022/01/29 07:41:08;;;;;;;17.00;8.98;;;;;;;;;;5013090;28;20033;-70
2022/01/29 07:43:34;;;;;;;15.57;8.35;;;;;;;;;;5012666;28;20041;-69
2022/01/29 07:46:00;;;;;;;13.40;8.00;;;;;;;;;;5012635;28;20022;-70
2022/01/29 07:48:26;;;;;;;15.90;8.80;;;;;;;;;;5012648;28;20392;-69
2022/01/29 07:50:52;;;;;;;17.58;10.15;;;;;;;;;;5012633;28;20030;-70
2022/01/29 07:53:18;;;;;;;16.13;10.48;;;;;;;;;;5012705;28;20018;-70
2022/01/29 07:55:44;;;;;;;16.77;9.77;;;;;;;;;;5012615;28;20030;-68
2022/01/29 07:58:10;;;;;;;15.65;9.55;;;;;;;;;;5011343;28;20117;-69
2022/01/29 08:00:36;;;;;;;13.90;8.32;;;;;;;;;;5012472;28;20391;-68
2022/01/29 08:03:03;;;;;;;16.60;8.55;;;;;;;;;;5012464;28;20455;-68
2022/01/29 08:05:29;;;;;;;15.65;9.18;;;;;;;;;;5012295;28;20503;-70
2022/01/29 08:07:55;;;;;;;18.13;10.00;;;;;;;;;;5012420;28;20018;-69
2022/01/29 08:10:21;;;;;;;14.95;8.80;;;;;;;;;;5011301;28;20080;-70
2022/01/29 08:12:47;;;;;;;13.82;8.52;;;;;;;;;;5003205;28;20097;-71
2022/01/29 08:15:14;;;;;;;16.35;9.40;;;;;;;;;;5012123;28;20030;-68
2022/01/29 08:17:40;;;;;;;15.70;8.70;;;;;;;;;;5012495;28;20034;-70
2022/01/29 08:20:06;;;;;;;16.85;9.45;;;;;;;;;;5012600;28;20452;-70
2022/01/29 08:22:32;;;;;;;14.85;8.85;;;;;;;;;;5012318;28;20032;-69
2022/01/29 08:24:59;;;;;;;15.80;8.48;;;;;;;;;;5011850;28;20030;-70
2022/01/29 08:27:25;;;;;;;15.05;9.10;;;;;;;;;;5012174;28;20018;-70
2022/01/29 08:29:51;;;;;;;18.23;9.95;;;;;;;;;;5010713;28;20026;-68
2022/01/29 08:32:17;;;;;;;16.83;9.20;;;;;;;;;;5012110;28;20033;-69
2022/01/29 08:34:46;;;;;;;15.70;8.32;;;;;;;;;;5004481;28;20030;-68
2022/01/29 08:37:12;;;;;;;16.85;8.32;;;;;;;;;;4997048;28;20037;-70
2022/01/29 08:39:38;;;;;;;13.48;9.23;;;;;;;;;;5009492;28;20407;-68
2022/01/29 08:42:04;;;;;;;13.05;7.85;;;;;;;;;;5002273;28;20022;-69
2022/01/29 08:44:30;;;;;;;12.57;8.05;;;;;;;;;;5012177;28;20101;-68
2022/01/29 08:46:56;;;;;;;16.35;9.18;;;;;;;;;;5012121;28;20096;-68
2022/01/29 08:49:22;;;;;;;12.68;8.20;;;;;;;;;;5011859;28;20029;-69
2022/01/29 08:51:48;;;;;;;12.50;7.47;;;;;;;;;;5011730;28;20381;-69
2022/01/29 08:54:14;;;;;;;12.02;7.55;;;;;;;;;;5011410;28;20018;-68
2022/01/29 08:56:40;;;;;;;10.75;7.30;;;;;;;;;;5011611;28;20533;-69
2022/01/29 08:59:06;;;;;;;12.80;6.85;;;;;;;;;;5011861;28;20038;-70
2022/01/29 09:01:32;;;;;;;12.70;7.40;;;;;;;;;;5011641;28;20037;-73
2022/01/29 09:03:59;;;;;;;13.18;8.20;;;;;;;;;;5011361;28;20025;-69
2022/01/29 09:06:25;;;;;;;15.02;8.18;;;;;;;;;;5010384;28;20372;-71
2022/01/29 09:08:51;;;;;;;14.30;8.07;;;;;;;;;;4984275;28;20034;-71
2022/01/29 09:11:18;;;;;;;13.18;8.13;;;;;;;;;;4996242;28;20425;-71
2022/01/29 09:13:45;;;;;;;12.27;7.57;;;;;;;;;;5000623;28;20023;-71
2022/01/29 09:16:11;;;;;;;12.32;7.40;;;;;;;;;;5010913;28;20033;-70
2022/01/29 09:18:36;;;;;;;12.45;7.82;;;;;;;;;;5006075;28;20022;-70
2022/01/29 09:21:03;;;;;;;12.55;7.75;;;;;;;;;;5011904;28;20033;-72
2022/01/29 09:23:29;;;;;;;15.20;7.80;;;;;;;;;;5010949;28;20048;-71
2022/01/29 09:25:55;;;;;;;13.98;7.80;;;;;;;;;;5010433;28;20560;-70
2022/01/29 09:28:22;;;;;;;11.73;7.38;;;;;;;;;;5011911;28;20049;-71
2022/01/29 09:30:49;;;;;;;13.05;7.35;;;;;;;;;;5011751;28;20034;-73
2022/01/29 09:33:15;;;;;;;11.05;6.50;;;;;;;;;;5011435;28;20088;-71
2022/01/29 09:35:41;;;;;;;10.48;7.38;;;;;;;;;;5009968;28;20034;-73
2022/01/29 09:38:08;;;;;;;11.82;7.82;;;;;;;;;;5011416;28;20416;-76
2022/01/29 09:40:35;;;;;;;14.95;7.78;;;;;;;;;;5011642;28;20030;-74
2022/01/29 09:43:02;;;;;;;12.75;7.72;;;;;;;;;;5008942;28;20033;-75
2022/01/29 09:45:28;;;;;;;10.82;6.45;;;;;;;;;;5004848;28;20388;-74
2022/01/29 09:48:01;;;;;;;13.90;6.43;;;;;;;;;;5001031;28;20310;-75
2022/01/29 09:50:28;;;;;;;11.30;6.63;;;;;;;;;;4999643;28;20021;-71
2022/01/29 09:52:54;;;;;;;15.52;7.35;;;;;;;;;;4992295;28;20057;-69
2022/01/29 09:55:20;;;;;;;10.40;6.80;;;;;;;;;;5000588;28;20488;-70
2022/01/29 09:57:46;;;;;;;12.23;6.65;;;;;;;;;;5015198;28;20034;-72
2022/01/29 10:00:13;;;;;;;10.32;6.35;;;;;;;;;;5013760;28;20017;-71
2022/01/29 10:02:39;;;;;;;11.77;6.15;;;;;;;;;;5016403;28;20029;-71
2022/01/29 10:05:05;;;;;;;10.55;6.00;;;;;;;;;;5012477;28;20381;-72
2022/01/29 10:07:31;;;;;;;11.25;6.45;;;;;;;;;;5011638;28;20109;-72
2022/01/29 10:09:59;;;;;;;10.65;5.80;;;;;;;;;;5012858;28;20472;-72
2022/01/29 10:12:27;;;;;;;11.05;6.78;;;;;;;;;;5012793;28;20022;-72
2022/01/29 10:14:57;;;;;;;14.90;6.72;;;;;;;;;;5012300;28;20396;-71
2022/01/29 10:17:42;;;;;;;11.32;6.32;;;;;;;;;;5009467;28;20015;-72
2022/01/29 10:20:08;;;;;;;9.07;5.80;;;;;;;;;;5012983;28;20053;-69
2022/01/29 10:22:34;;;;;;;10.45;5.78;;;;;;;;;;5013337;28;20018;-70
2022/01/29 10:25:04;;;;;;;12.05;6.57;;;;;;;;;;4997987;28;20114;-72
2022/01/29 10:27:30;;;;;;;11.25;6.50;;;;;;;;;;5002956;28;20073;-71
2022/01/29 10:30:00;;;;;;;10.52;6.70;;;;;;;;;;5014340;28;20435;-71
2022/01/29 10:32:28;;;;;;;12.55;6.75;;;;;;;;;;5014402;28;20352;-71
2022/01/29 10:34:58;;;;;;;12.98;7.25;;;;;;;;;;5014169;28;20435;-71
2022/01/29 10:37:25;;;;;;;10.80;6.70;;;;;;;;;;5014463;28;20440;-71
2022/01/29 10:39:58;;;;;;;12.50;6.68;;;;;;;;;;5014077;28;20370;-70
2022/01/29 10:42:24;;;;;;;11.13;7.30;;;;;;;;;;4996496;28;20021;-72
2022/01/29 10:47:52;;;;;;;9.57;6.20;;;;;;;;;;5045123;28;20131;-71
2022/01/29 10:50:18;;;;;;;15.35;7.07;;;;;;;;;;5021923;28;20025;-71
2022/01/29 10:52:44;;;;;;;13.27;7.43;;;;;;;;;;5045835;28;20044;-69
2022/01/29 10:55:10;;;;;;;12.27;6.90;;;;;;;;;;5044844;28;20021;-71
2022/01/29 10:57:38;;;;;;;11.32;6.65;;;;;;;;;;5031541;28;20037;-71
2022/01/29 11:00:08;;;;;;;9.95;6.28;;;;;;;;;;5049804;28;20035;-73
2022/01/29 11:02:34;;;;;;;9.40;5.03;;;;;;;;;;5034137;28;20073;-71
2022/01/29 11:05:02;;;;;;;12.85;6.72;;;;;;;;;;5034498;28;20371;-71
2022/01/29 11:07:30;;;;;;;8.73;5.65;;;;;;;;;;5039903;28;20380;-71
2022/01/29 11:09:56;;;;;;;11.45;6.32;;;;;;;;;;5049664;28;20032;-70
2022/01/29 11:12:27;;;;;;;8.60;6.25;;;;;;;;;;5037958;28;20017;-69
2022/01/29 11:14:54;;;;;;;9.38;6.00;;;;;;;;;;5044496;28;20022;-71
2022/01/29 11:17:20;;;;;;;10.23;5.93;;;;;;;;;;5042369;28;20443;-72
2022/01/29 11:19:47;;;;;;;9.20;5.63;;;;;;;;;;5049427;28;20032;-73
2022/01/29 11:22:13;;;;;;;11.00;5.43;;;;;;;;;;5036492;28;20498;-69
2022/01/29 11:24:41;;;;;;;8.68;5.85;;;;;;;;;;5045646;28;20030;-71
2022/01/29 11:27:23;;;;;;;7.40;4.90;;;;;;;;;;5042437;28;20021;-72
2022/01/29 11:29:48;;;;;;;;;;;;;;;;;;5036952;28;20072;-71
2022/01/29 11:32:23;;;;;;;8.27;5.15;;;;;;;;;;5049327;28;19987;-71
2022/01/29 11:35:08;;;;;;;8.40;5.03;;;;;;;;;;5041052;28;20035;-71
2022/01/29 11:37:51;;;;;;;8.15;5.07;;;;;;;;;;5038428;28;20049;-71
2022/01/29 11:40:27;;;;;;;10.05;6.05;;;;;;;;;;5020901;28;20013;-71
2022/01/29 11:43:12;;;;;;;8.02;4.50;;;;;;;;;;5043527;28;20017;-71
2022/01/29 11:45:44;;;;;;;8.52;4.32;;;;;;;;;;5046292;28;20059;-71
2022/01/29 11:48:28;;;;;;;7.30;5.03;;;;;;;;;;5036656;28;20386;-71
2022/01/29 11:51:02;;;;;;;7.22;4.90;;;;;;;;;;5043810;28;20018;-71
2022/01/29 11:53:47;;;;;;;6.28;4.30;;;;;;;;;;5046353;28;20067;-71
2022/01/29 11:56:31;;;;;;;5.97;4.55;;;;;;;;;;5035628;28;20049;-70
2022/01/29 11:59:15;;;;;;;5.60;4.10;;;;;;;;;;5043096;28;20057;-71
2022/01/29 12:01:41;;;;;;;7.13;3.83;;;;;;;;;;5048239;28;20028;-70
2022/01/29 12:04:07;;;;;;;6.10;4.00;;;;;;;;;;5035824;28;20029;-70
2022/01/29 12:06:38;;;;;;;6.65;4.57;;;;;;;;;;5046085;28;20060;-71
2022/01/29 12:09:09;;;;;;;6.00;4.28;;;;;;;;;;5043190;28;20060;-72
2022/01/29 12:11:35;;;;;;;;;;;;;;;;;;5038962;28;20048;-71
2022/01/29 12:14:13;;;;;;;5.80;3.83;;;;;;;;;;5047702;28;19911;-71
2022/01/29 12:16:49;;;;;;;5.68;3.58;;;;;;;;;;5038902;28;20562;-72
2022/01/29 12:19:33;;;;;;;5.97;3.95;;;;;;;;;;5044430;28;20044;-73
2022/01/29 12:22:00;;;;;;;6.00;3.47;;;;;;;;;;5035390;28;20029;-71
2022/01/29 12:24:26;;;;;;;5.53;3.67;;;;;;;;;;5045196;28;20025;-71
2022/01/29 12:26:58;;;;;;;5.20;3.80;;;;;;;;;;5040958;28;20445;-70
2022/01/29 12:29:24;;;;;;;4.45;3.42;;;;;;;;;;5038775;28;20026;-71
2022/01/29 12:31:53;;;;;;;5.05;3.53;;;;;;;;;;5048461;28;20497;-71
2022/01/29 12:34:21;;;;;;;5.53;3.20;;;;;;;;;;5036076;28;20027;-70
2022/01/29 12:36:47;;;;;;;4.80;2.80;;;;;;;;;;5052061;28;20033;-72
2022/01/29 12:39:22;;;;;;;5.30;3.38;;;;;;;;;;5040979;28;20439;-70
2022/01/29 12:42:27;;;;;;;4.28;2.72;;;;;;;;;;5049051;28;20482;-71
2022/01/29 12:44:57;;;;;;;3.03;2.60;;;;;;;;;;5040798;28;20070;-71
2022/01/29 12:47:27;;;;;;;5.23;3.50;;;;;;;;;;5038821;28;20049;-71
2022/01/29 12:49:53;;;;;;;3.28;2.53;;;;;;;;;;5048412;28;20350;-69
2022/01/29 12:52:20;;;;;;;3.65;2.60;;;;;;;;;;5036028;28;20028;-71
2022/01/29 12:54:57;;;;;;;3.05;2.05;;;;;;;;;;5043532;28;20014;-71
2022/01/29 12:57:23;;;;;;;3.30;2.47;;;;;;;;;;5045123;28;20066;-68
2022/01/29 12:59:49;;;;;;;2.60;1.90;;;;;;;;;;5035404;28;20055;-71
2022/01/29 13:02:15;;;;;;;2.88;2.25;;;;;;;;;;5047942;28;20486;-70
2022/01/29 13:04:46;;;;;;;2.67;1.90;;;;;;;;;;5032458;28;20036;-71
2022/01/29 13:07:13;;;;;;;2.30;2.08;;;;;;;;;;5040196;28;20483;-70
2022/01/29 13:09:39;;;;;;;3.45;2.35;;;;;;;;;;5046921;28;20124;-70
2022/01/29 13:12:12;;;;;;;3.72;2.20;;;;;;;;;;5034945;28;20564;-72
2022/01/29 13:14:39;;;;;;;3.05;2.17;;;;;;;;;;5044756;28;20021;-71
2022/01/29 13:17:09;;;;;;;2.65;1.92;;;;;;;;;;5039004;28;20028;-71
2022/01/29 13:19:36;;;;;;;2.67;2.13;;;;;;;;;;5046042;28;20112;-72
2022/01/29 13:22:09;;;;;;;3.13;2.08;;;;;;;;;;5037458;28;20260;-71
2022/01/29 13:24:39;;;;;;;3.70;1.75;;;;;;;;;;5048675;28;20026;-71
2022/01/29 13:27:09;;;;;;;4.68;2.58;;;;;;;;;;5046080;28;20040;-70
2022/01/29 13:29:59;;;;;;;2.40;1.60;;;;;;;;;;5040469;28;20392;-69
2022/01/29 13:32:32;;;;;;;2.22;1.75;;;;;;;;;;5016788;28;20545;-71
2022/01/29 13:35:14;;;;;;;1.70;1.38;;;;;;;;;;5046412;28;20530;-71
2022/01/29 13:37:40;;;;;;;2.08;1.70;;;;;;;;;;5049330;28;20050;-72
2022/01/29 13:40:07;;;;;;;2.45;1.42;;;;;;;;;;5036722;28;20061;-71
2022/01/29 13:42:35;;;;;;;2.10;1.63;;;;;;;;;;5047292;28;20424;-70
2022/01/29 13:45:07;;;;;;;2.78;1.40;;;;;;;;;;5042861;28;20021;-70
2022/01/29 13:47:37;;;;;;;3.90;1.20;;;;;;;;;;5038394;28;20403;-71
2022/01/29 13:50:22;;;;;;;2.00;1.45;;;;;;;;;;5049722;28;20060;-72
2022/01/29 13:53:00;;;;;;;2.13;1.45;;;;;;;;;;5042883;28;20033;-71
2022/01/29 13:55:27;;;;;;;1.98;1.40;;;;;;;;;;5041751;28;20032;-74
2022/01/29 13:58:02;;;;;;;1.30;1.15;;;;;;;;;;5023911;28;20408;-69
2022/01/29 14:00:28;;;;;;;1.42;1.13;;;;;;;;;;5048817;28;20022;-72
2022/01/29 14:02:54;;;;;;;1.73;1.30;;;;;;;;;;5044581;28;20029;-72
2022/01/29 14:05:26;;;;;;;2.10;1.30;;;;;;;;;;5042148;28;20483;-71
2022/01/29 14:07:52;;;;;;;3.22;2.92;;;;;;;;;;5051343;28;20013;-72
2022/01/29 14:10:19;;;;;;;1.52;1.08;;;;;;;;;;5039956;28;20017;-71
2022/01/29 14:12:48;;;;;;;1.88;1.30;;;;;;;;;;5047456;28;20101;-69
2022/01/29 14:15:15;;;;;;;0.95;0.90;;;;;;;;;;5046798;28;20502;-72
2022/01/29 14:17:41;;;;;;;2.38;1.45;;;;;;;;;;5040313;28;20022;-72
2022/01/29 14:20:09;;;;;;;2.65;1.10;;;;;;;;;;5051905;28;20029;-70
2022/01/29 14:22:36;;;;;;;1.48;1.25;;;;;;;;;;5042082;28;20028;-71
2022/01/29 14:25:07;;;;;;;1.25;1.10;;;;;;;;;;5044231;28;20064;-70
2022/01/29 14:27:33;;;;;;;1.23;1.05;;;;;;;;;;5049454;28;20036;-72
2022/01/29 14:29:59;;;;;;;2.28;1.73;;;;;;;;;;5037917;28;20034;-70
2022/01/29 14:32:26;;;;;;;2.45;1.75;;;;;;;;;;5049011;28;20025;-71
2022/01/29 14:34:52;;;;;;;1.90;1.40;;;;;;;;;;5043117;28;20120;-72
2022/01/29 14:37:18;;;;;;;3.53;1.60;;;;;;;;;;5040512;28;20045;-71
2022/01/29 14:39:46;;;;;;;2.28;1.70;;;;;;;;;;5033900;28;20026;-71
2022/01/29 14:42:12;;;;;;;2.20;1.45;;;;;;;;;;5037032;28;20017;-71
2022/01/29 14:44:41;;;;;;;1.45;1.10;;;;;;;;;;5046767;28;20093;-71
2022/01/29 14:47:07;;;;;;;1.88;1.58;;;;;;;;;;5044370;28;20029;-70
2022/01/29 14:49:34;;;;;;;1.92;1.60;;;;;;;;;;5039664;28;20021;-72
2022/01/29 14:52:03;;;;;;;1.88;1.67;;;;;;;;;;5050280;28;20021;-71
2022/01/29 14:54:31;;;;;;;3.88;2.13;;;;;;;;;;5039149;28;20501;-71